sensor_id;sensor_type;location;lat;lon;timestamp;P1;durP1;ratioP1;P2;durP2;ratioP2
55469;SDS011;41334;47.872;16.384;2023-05-07T00:00:33;4.03;;;2.47;;
55469;SDS011;41334;47.872;16.384;2023-05-07T00:05:35;2.40;;;1.60;;
55469;SDS011;41334;47.872;16.384;2023-05-07T00:10:37;4.78;;;1.50;;
55469;SDS011;41334;47.872;16.384;2023-05-07T00:15:39;2.58;;;1.75;;
55469;SDS011;41334;47.872;16.384;2023-05-07T00:20:41;3.65;;;2.33;;
55469;SDS011;41334;47.872;16.384;2023-05-07T00:25:43;2.35;;;1.63;;
55469;SDS011;41334;47.872;16.384;2023-05-07T00:30:45;4.78;;;2.40;;
55469;SDS011;41334;47.872;16.384;2023-05-07T00:35:47;2.80;;;1.95;;
55469;SDS011;41334;47.872;16.384;2023-05-07T00:40:49;2.47;;;1.77;;
55469;SDS011;41334;47.872;16.384;2023-05-07T00:45:52;4.13;;;1.42;;
55469;SDS011;41334;47.872;16.384;2023-05-07T00:50:55;4.75;;;1.98;;
55469;SDS011;41334;47.872;16.384;2023-05-07T00:55:58;3.35;;;1.40;;
55469;SDS011;41334;47.872;16.384;2023-05-07T01:01:02;2.80;;;1.60;;
55469;SDS011;41334;47.872;16.384;2023-05-07T01:06:04;4.10;;;1.60;;
55469;SDS011;41334;47.872;16.384;2023-05-07T01:11:09;2.95;;;1.58;;
55469;SDS011;41334;47.872;16.384;2023-05-07T01:16:13;2.70;;;1.45;;
55469;SDS011;41334;47.872;16.384;2023-05-07T01:21:15;5.13;;;1.67;;
55469;SDS011;41334;47.872;16.384;2023-05-07T01:26:20;1.92;;;1.20;;
55469;SDS011;41334;47.872;16.384;2023-05-07T01:31:22;2.40;;;1.55;;
55469;SDS011;41334;47.872;16.384;2023-05-07T01:36:26;3.28;;;1.80;;
55469;SDS011;41334;47.872;16.384;2023-05-07T01:41:30;3.42;;;1.63;;
55469;SDS011;41334;47.872;16.384;2023-05-07T01:46:32;2.28;;;1.50;;
55469;SDS011;41334;47.872;16.384;2023-05-07T01:51:35;2.95;;;1.77;;
55469;SDS011;41334;47.872;16.384;2023-05-07T01:56:37;3.95;;;2.22;;
55469;SDS011;41334;47.872;16.384;2023-05-07T02:01:39;2.70;;;2.03;;
55469;SDS011;41334;47.872;16.384;2023-05-07T02:06:42;3.17;;;2.05;;
55469;SDS011;41334;47.872;16.384;2023-05-07T02:11:45;2.83;;;1.85;;
55469;SDS011;41334;47.872;16.384;2023-05-07T02:16:47;3.47;;;2.17;;
55469;SDS011;41334;47.872;16.384;2023-05-07T02:21:50;4.15;;;2.72;;
55469;SDS011;41334;47.872;16.384;2023-05-07T02:26:52;3.75;;;2.30;;
55469;SDS011;41334;47.872;16.384;2023-05-07T02:31:54;6.85;;;2.20;;
55469;SDS011;41334;47.872;16.384;2023-05-07T02:36:57;5.10;;;2.85;;
55469;SDS011;41334;47.872;16.384;2023-05-07T02:42:00;3.65;;;2.00;;
55469;SDS011;41334;47.872;16.384;2023-05-07T02:47:03;2.33;;;1.75;;
55469;SDS011;41334;47.872;16.384;2023-05-07T02:52:05;3.92;;;1.85;;
55469;SDS011;41334;47.872;16.384;2023-05-07T02:57:08;3.45;;;1.95;;
55469;SDS011;41334;47.872;16.384;2023-05-07T03:02:10;3.67;;;2.25;;
55469;SDS011;41334;47.872;16.384;2023-05-07T03:07:12;3.28;;;1.77;;
55469;SDS011;41334;47.872;16.384;2023-05-07T03:12:14;2.67;;;1.50;;
55469;SDS011;41334;47.872;16.384;2023-05-07T03:17:17;4.00;;;1.92;;
55469;SDS011;41334;47.872;16.384;2023-05-07T03:22:18;3.38;;;2.05;;
55469;SDS011;41334;47.872;16.384;2023-05-07T03:27:20;4.93;;;1.83;;
55469;SDS011;41334;47.872;16.384;2023-05-07T03:32:24;3.05;;;1.58;;
55469;SDS011;41334;47.872;16.384;2023-05-07T03:37:26;3.35;;;2.00;;
55469;SDS011;41334;47.872;16.384;2023-05-07T03:42:28;3.08;;;1.70;;
55469;SDS011;41334;47.872;16.384;2023-05-07T03:47:30;1.75;;;1.15;;
55469;SDS011;41334;47.872;16.384;2023-05-07T03:52:32;1.85;;;1.15;;
55469;SDS011;41334;47.872;16.384;2023-05-07T03:57:36;4.45;;;1.50;;
55469;SDS011;41334;47.872;16.384;2023-05-07T04:02:38;2.30;;;1.13;;
55469;SDS011;41334;47.872;16.384;2023-05-07T04:07:41;5.15;;;1.23;;
55469;SDS011;41334;47.872;16.384;2023-05-07T04:12:43;3.50;;;1.30;;
55469;SDS011;41334;47.872;16.384;2023-05-07T04:17:50;1.08;;;0.80;;
55469;SDS011;41334;47.872;16.384;2023-05-07T04:22:55;2.88;;;1.02;;
55469;SDS011;41334;47.872;16.384;2023-05-07T04:27:58;2.20;;;1.10;;
55469;SDS011;41334;47.872;16.384;2023-05-07T04:33:02;1.95;;;1.20;;
55469;SDS011;41334;47.872;16.384;2023-05-07T04:38:05;1.75;;;1.00;;
55469;SDS011;41334;47.872;16.384;2023-05-07T04:43:07;2.72;;;1.35;;
55469;SDS011;41334;47.872;16.384;2023-05-07T04:48:17;1.92;;;1.13;;
55469;SDS011;41334;47.872;16.384;2023-05-07T04:53:22;2.63;;;1.38;;
55469;SDS011;41334;47.872;16.384;2023-05-07T04:58:25;1.73;;;0.88;;
55469;SDS011;41334;47.872;16.384;2023-05-07T05:03:27;2.10;;;1.10;;
55469;SDS011;41334;47.872;16.384;2023-05-07T05:08:29;4.32;;;1.50;;
55469;SDS011;41334;47.872;16.384;2023-05-07T05:13:33;9.00;;;1.50;;
55469;SDS011;41334;47.872;16.384;2023-05-07T05:18:41;2.78;;;1.40;;
55469;SDS011;41334;47.872;16.384;2023-05-07T05:23:45;2.10;;;1.25;;
55469;SDS011;41334;47.872;16.384;2023-05-07T05:28:50;4.60;;;2.10;;
55469;SDS011;41334;47.872;16.384;2023-05-07T05:33:55;3.03;;;1.73;;
55469;SDS011;41334;47.872;16.384;2023-05-07T05:38:58;3.70;;;2.10;;
55469;SDS011;41334;47.872;16.384;2023-05-07T05:44:00;4.15;;;2.17;;
55469;SDS011;41334;47.872;16.384;2023-05-07T05:49:03;3.20;;;2.08;;
55469;SDS011;41334;47.872;16.384;2023-05-07T05:54:05;3.45;;;2.00;;
55469;SDS011;41334;47.872;16.384;2023-05-07T05:59:07;3.90;;;2.22;;
55469;SDS011;41334;47.872;16.384;2023-05-07T06:04:09;3.95;;;2.05;;
55469;SDS011;41334;47.872;16.384;2023-05-07T06:09:11;4.55;;;2.70;;
55469;SDS011;41334;47.872;16.384;2023-05-07T06:14:16;7.28;;;4.32;;
55469;SDS011;41334;47.872;16.384;2023-05-07T06:19:18;10.60;;;4.70;;
55469;SDS011;41334;47.872;16.384;2023-05-07T06:24:26;10.13;;;5.15;;
55469;SDS011;41334;47.872;16.384;2023-05-07T06:29:28;8.40;;;5.28;;
55469;SDS011;41334;47.872;16.384;2023-05-07T06:34:34;3.60;;;2.20;;
55469;SDS011;41334;47.872;16.384;2023-05-07T06:39:35;3.47;;;1.92;;
55469;SDS011;41334;47.872;16.384;2023-05-07T06:44:37;9.25;;;3.65;;
55469;SDS011;41334;47.872;16.384;2023-05-07T06:49:42;12.27;;;7.00;;
55469;SDS011;41334;47.872;16.384;2023-05-07T06:54:46;12.63;;;7.80;;
55469;SDS011;41334;47.872;16.384;2023-05-07T06:59:50;12.88;;;8.20;;
55469;SDS011;41334;47.872;16.384;2023-05-07T07:04:52;7.65;;;3.38;;
55469;SDS011;41334;47.872;16.384;2023-05-07T07:09:54;15.95;;;9.38;;
55469;SDS011;41334;47.872;16.384;2023-05-07T07:14:56;13.40;;;7.88;;
55469;SDS011;41334;47.872;16.384;2023-05-07T07:19:58;17.63;;;9.32;;
55469;SDS011;41334;47.872;16.384;2023-05-07T07:25:00;11.80;;;7.43;;
55469;SDS011;41334;47.872;16.384;2023-05-07T07:30:03;12.23;;;7.45;;
55469;SDS011;41334;47.872;16.384;2023-05-07T07:35:08;13.98;;;7.85;;
55469;SDS011;41334;47.872;16.384;2023-05-07T07:40:11;14.32;;;9.15;;
55469;SDS011;41334;47.872;16.384;2023-05-07T07:45:14;12.43;;;8.35;;
55469;SDS011;41334;47.872;16.384;2023-05-07T07:50:20;18.80;;;9.40;;
55469;SDS011;41334;47.872;16.384;2023-05-07T07:55:41;11.73;;;8.10;;
55469;SDS011;41334;47.872;16.384;2023-05-07T08:00:46;7.30;;;5.20;;
55469;SDS011;41334;47.872;16.384;2023-05-07T08:05:49;5.35;;;2.88;;
55469;SDS011;41334;47.872;16.384;2023-05-07T08:10:52;9.10;;;5.95;;
55469;SDS011;41334;47.872;16.384;2023-05-07T08:16:02;17.00;;;9.52;;
55469;SDS011;41334;47.872;16.384;2023-05-07T08:21:04;15.82;;;8.57;;
55469;SDS011;41334;47.872;16.384;2023-05-07T08:26:07;13.60;;;6.68;;
55469;SDS011;41334;47.872;16.384;2023-05-07T08:31:10;15.27;;;9.52;;
55469;SDS011;41334;47.872;16.384;2023-05-07T08:36:15;14.13;;;8.15;;
55469;SDS011;41334;47.872;16.384;2023-05-07T08:41:17;15.18;;;10.63;;
55469;SDS011;41334;47.872;16.384;2023-05-07T08:46:21;13.75;;;8.07;;
55469;SDS011;41334;47.872;16.384;2023-05-07T08:51:28;13.02;;;8.00;;
55469;SDS011;41334;47.872;16.384;2023-05-07T08:56:30;13.18;;;7.50;;
55469;SDS011;41334;47.872;16.384;2023-05-07T09:01:32;7.40;;;5.00;;
55469;SDS011;41334;47.872;16.384;2023-05-07T09:06:37;12.32;;;8.73;;
55469;SDS011;41334;47.872;16.384;2023-05-07T09:11:44;12.27;;;7.60;;
55469;SDS011;41334;47.872;16.384;2023-05-07T09:16:48;10.75;;;6.75;;
55469;SDS011;41334;47.872;16.384;2023-05-07T09:21:57;11.77;;;8.50;;
55469;SDS011;41334;47.872;16.384;2023-05-07T09:27:10;8.57;;;5.95;;
55469;SDS011;41334;47.872;16.384;2023-05-07T09:32:17;14.00;;;8.23;;
55469;SDS011;41334;47.872;16.384;2023-05-07T09:37:19;9.75;;;5.68;;
55469;SDS011;41334;47.872;16.384;2023-05-07T09:42:23;9.40;;;6.13;;
55469;SDS011;41334;47.872;16.384;2023-05-07T09:47:27;8.93;;;5.57;;
55469;SDS011;41334;47.872;16.384;2023-05-07T09:52:34;10.77;;;6.53;;
55469;SDS011;41334;47.872;16.384;2023-05-07T09:57:39;9.30;;;6.18;;
55469;SDS011;41334;47.872;16.384;2023-05-07T10:02:43;12.68;;;7.85;;
55469;SDS011;41334;47.872;16.384;2023-05-07T10:07:52;13.93;;;8.32;;
55469;SDS011;41334;47.872;16.384;2023-05-07T10:12:56;11.68;;;7.35;;
55469;SDS011;41334;47.872;16.384;2023-05-07T10:18:05;11.55;;;7.22;;
55469;SDS011;41334;47.872;16.384;2023-05-07T10:23:09;11.73;;;6.15;;
55469;SDS011;41334;47.872;16.384;2023-05-07T10:33:24;12.98;;;8.10;;
55469;SDS011;41334;47.872;16.384;2023-05-07T10:38:31;14.30;;;8.93;;
55469;SDS011;41334;47.872;16.384;2023-05-07T10:43:44;12.18;;;7.90;;
55469;SDS011;41334;47.872;16.384;2023-05-07T11:04:31;11.48;;;7.35;;
55469;SDS011;41334;47.872;16.384;2023-05-07T11:10:00;9.95;;;6.95;;
55469;SDS011;41334;47.872;16.384;2023-05-07T11:15:33;13.38;;;7.25;;
55469;SDS011;41334;47.872;16.384;2023-05-07T11:20:53;13.70;;;7.25;;
55469;SDS011;41334;47.872;16.384;2023-05-07T11:26:13;11.68;;;8.00;;
55469;SDS011;41334;47.872;16.384;2023-05-07T11:31:23;13.27;;;7.88;;
55469;SDS011;41334;47.872;16.384;2023-05-07T11:36:30;10.65;;;5.70;;
55469;SDS011;41334;47.872;16.384;2023-05-07T11:41:36;7.60;;;4.70;;
55469;SDS011;41334;47.872;16.384;2023-05-07T11:46:42;7.00;;;4.90;;
55469;SDS011;41334;47.872;16.384;2023-05-07T11:51:45;9.25;;;6.07;;
55469;SDS011;41334;47.872;16.384;2023-05-07T11:56:49;9.55;;;6.35;;
55469;SDS011;41334;47.872;16.384;2023-05-07T12:01:51;8.32;;;5.47;;
55469;SDS011;41334;47.872;16.384;2023-05-07T12:06:53;11.13;;;7.00;;
55469;SDS011;41334;47.872;16.384;2023-05-07T12:11:57;10.57;;;6.85;;
55469;SDS011;41334;47.872;16.384;2023-05-07T12:17:03;9.85;;;5.90;;
55469;SDS011;41334;47.872;16.384;2023-05-07T12:22:07;7.57;;;5.15;;
55469;SDS011;41334;47.872;16.384;2023-05-07T12:27:10;8.00;;;5.75;;
55469;SDS011;41334;47.872;16.384;2023-05-07T12:32:15;9.18;;;5.78;;
55469;SDS011;41334;47.872;16.384;2023-05-07T12:37:22;9.93;;;5.43;;
55469;SDS011;41334;47.872;16.384;2023-05-07T12:42:35;7.50;;;5.63;;
55469;SDS011;41334;47.872;16.384;2023-05-07T12:47:38;9.70;;;5.53;;
55469;SDS011;41334;47.872;16.384;2023-05-07T12:52:40;10.77;;;5.25;;
55469;SDS011;41334;47.872;16.384;2023-05-07T12:57:43;9.07;;;6.03;;
55469;SDS011;41334;47.872;16.384;2023-05-07T13:02:49;6.65;;;4.38;;
55469;SDS011;41334;47.872;16.384;2023-05-07T13:07:54;6.65;;;4.30;;
55469;SDS011;41334;47.872;16.384;2023-05-07T13:12:57;8.85;;;4.28;;
55469;SDS011;41334;47.872;16.384;2023-05-07T13:17:59;8.48;;;5.15;;
55469;SDS011;41334;47.872;16.384;2023-05-07T13:23:02;13.20;;;5.80;;
55469;SDS011;41334;47.872;16.384;2023-05-07T13:28:05;6.78;;;4.38;;
55469;SDS011;41334;47.872;16.384;2023-05-07T13:33:12;5.88;;;4.47;;
55469;SDS011;41334;47.872;16.384;2023-05-07T13:38:14;7.50;;;4.40;;
55469;SDS011;41334;47.872;16.384;2023-05-07T13:43:17;8.30;;;4.35;;
55469;SDS011;41334;47.872;16.384;2023-05-07T13:48:20;5.95;;;4.20;;
55469;SDS011;41334;47.872;16.384;2023-05-07T13:53:22;6.10;;;3.92;;
55469;SDS011;41334;47.872;16.384;2023-05-07T13:58:24;6.20;;;3.90;;
55469;SDS011;41334;47.872;16.384;2023-05-07T14:03:26;5.47;;;3.65;;
55469;SDS011;41334;47.872;16.384;2023-05-07T14:08:30;6.68;;;4.28;;
55469;SDS011;41334;47.872;16.384;2023-05-07T14:13:32;6.13;;;4.22;;
55469;SDS011;41334;47.872;16.384;2023-05-07T14:18:35;8.52;;;4.28;;
55469;SDS011;41334;47.872;16.384;2023-05-07T14:23:38;6.05;;;3.65;;
55469;SDS011;41334;47.872;16.384;2023-05-07T14:28:40;4.80;;;2.22;;
55469;SDS011;41334;47.872;16.384;2023-05-07T14:33:47;5.60;;;3.58;;
55469;SDS011;41334;47.872;16.384;2023-05-07T14:38:51;4.40;;;2.90;;
55469;SDS011;41334;47.872;16.384;2023-05-07T14:43:57;5.38;;;3.70;;
55469;SDS011;41334;47.872;16.384;2023-05-07T14:49:01;4.88;;;3.80;;
55469;SDS011;41334;47.872;16.384;2023-05-07T14:54:03;5.30;;;3.30;;
55469;SDS011;41334;47.872;16.384;2023-05-07T14:59:05;4.53;;;3.00;;
55469;SDS011;41334;47.872;16.384;2023-05-07T15:04:08;4.20;;;2.75;;
55469;SDS011;41334;47.872;16.384;2023-05-07T15:09:10;5.40;;;3.53;;
55469;SDS011;41334;47.872;16.384;2023-05-07T15:14:12;3.97;;;3.05;;
55469;SDS011;41334;47.872;16.384;2023-05-07T15:19:14;5.68;;;3.15;;
55469;SDS011;41334;47.872;16.384;2023-05-07T15:24:17;5.25;;;2.85;;
55469;SDS011;41334;47.872;16.384;2023-05-07T15:29:19;4.82;;;2.83;;
55469;SDS011;41334;47.872;16.384;2023-05-07T15:34:21;3.92;;;2.95;;
55469;SDS011;41334;47.872;16.384;2023-05-07T15:39:25;3.95;;;2.40;;
55469;SDS011;41334;47.872;16.384;2023-05-07T15:44:27;3.70;;;2.50;;
55469;SDS011;41334;47.872;16.384;2023-05-07T15:49:30;2.90;;;2.10;;
55469;SDS011;41334;47.872;16.384;2023-05-07T15:54:31;3.45;;;2.25;;
55469;SDS011;41334;47.872;16.384;2023-05-07T15:59:33;3.65;;;2.20;;
55469;SDS011;41334;47.872;16.384;2023-05-07T16:04:36;3.03;;;1.98;;
55469;SDS011;41334;47.872;16.384;2023-05-07T16:09:38;3.35;;;1.83;;
55469;SDS011;41334;47.872;16.384;2023-05-07T16:14:40;3.13;;;1.92;;
55469;SDS011;41334;47.872;16.384;2023-05-07T16:19:42;2.80;;;1.58;;
55469;SDS011;41334;47.872;16.384;2023-05-07T16:24:44;2.28;;;1.50;;
55469;SDS011;41334;47.872;16.384;2023-05-07T16:29:46;2.92;;;1.80;;
55469;SDS011;41334;47.872;16.384;2023-05-07T16:34:49;6.25;;;1.73;;
55469;SDS011;41334;47.872;16.384;2023-05-07T16:39:52;5.22;;;1.90;;
55469;SDS011;41334;47.872;16.384;2023-05-07T16:44:54;3.08;;;1.90;;
55469;SDS011;41334;47.872;16.384;2023-05-07T16:49:56;2.88;;;2.05;;
55469;SDS011;41334;47.872;16.384;2023-05-07T16:54:59;7.00;;;1.92;;
55469;SDS011;41334;47.872;16.384;2023-05-07T17:00:02;4.00;;;2.05;;
55469;SDS011;41334;47.872;16.384;2023-05-07T17:05:07;4.50;;;2.28;;
55469;SDS011;41334;47.872;16.384;2023-05-07T17:10:10;2.42;;;1.60;;
55469;SDS011;41334;47.872;16.384;2023-05-07T17:15:11;4.50;;;2.53;;
55469;SDS011;41334;47.872;16.384;2023-05-07T17:20:14;3.03;;;2.03;;
55469;SDS011;41334;47.872;16.384;2023-05-07T17:25:16;2.97;;;1.90;;
55469;SDS011;41334;47.872;16.384;2023-05-07T17:30:17;3.47;;;2.10;;
55469;SDS011;41334;47.872;16.384;2023-05-07T17:35:20;3.65;;;2.28;;
55469;SDS011;41334;47.872;16.384;2023-05-07T17:40:22;2.65;;;1.85;;
55469;SDS011;41334;47.872;16.384;2023-05-07T17:45:23;2.88;;;2.15;;
55469;SDS011;41334;47.872;16.384;2023-05-07T17:50:25;2.65;;;1.80;;
55469;SDS011;41334;47.872;16.384;2023-05-07T17:55:30;2.70;;;1.13;;
55469;SDS011;41334;47.872;16.384;2023-05-07T18:00:34;3.08;;;2.00;;
55469;SDS011;41334;47.872;16.384;2023-05-07T18:05:36;2.40;;;1.63;;
55469;SDS011;41334;47.872;16.384;2023-05-07T18:10:39;5.43;;;3.05;;
55469;SDS011;41334;47.872;16.384;2023-05-07T18:15:43;3.58;;;2.53;;
55469;SDS011;41334;47.872;16.384;2023-05-07T18:20:49;3.72;;;1.98;;
55469;SDS011;41334;47.872;16.384;2023-05-07T18:25:51;3.38;;;2.60;;
55469;SDS011;41334;47.872;16.384;2023-05-07T18:30:53;4.43;;;3.35;;
55469;SDS011;41334;47.872;16.384;2023-05-07T18:35:55;3.60;;;2.58;;
55469;SDS011;41334;47.872;16.384;2023-05-07T18:41:02;4.25;;;2.72;;
55469;SDS011;41334;47.872;16.384;2023-05-07T18:46:04;6.75;;;2.88;;
55469;SDS011;41334;47.872;16.384;2023-05-07T18:51:09;2.92;;;1.38;;
55469;SDS011;41334;47.872;16.384;2023-05-07T18:56:13;4.25;;;2.60;;
55469;SDS011;41334;47.872;16.384;2023-05-07T19:01:15;3.83;;;2.50;;
55469;SDS011;41334;47.872;16.384;2023-05-07T19:06:17;5.68;;;2.97;;
55469;SDS011;41334;47.872;16.384;2023-05-07T19:11:19;6.60;;;3.30;;
55469;SDS011;41334;47.872;16.384;2023-05-07T19:16:21;3.70;;;2.55;;
55469;SDS011;41334;47.872;16.384;2023-05-07T19:21:23;3.65;;;2.30;;
55469;SDS011;41334;47.872;16.384;2023-05-07T19:26:25;5.93;;;3.05;;
55469;SDS011;41334;47.872;16.384;2023-05-07T19:31:27;5.80;;;3.45;;
55469;SDS011;41334;47.872;16.384;2023-05-07T19:36:30;10.50;;;3.65;;
55469;SDS011;41334;47.872;16.384;2023-05-07T19:41:34;7.15;;;4.20;;
55469;SDS011;41334;47.872;16.384;2023-05-07T19:46:36;5.07;;;3.13;;
55469;SDS011;41334;47.872;16.384;2023-05-07T19:51:40;1.73;;;1.20;;
55469;SDS011;41334;47.872;16.384;2023-05-07T19:56:42;6.25;;;4.28;;
55469;SDS011;41334;47.872;16.384;2023-05-07T20:01:44;4.68;;;2.83;;
55469;SDS011;41334;47.872;16.384;2023-05-07T20:06:46;5.85;;;3.17;;
55469;SDS011;41334;47.872;16.384;2023-05-07T20:11:47;3.92;;;2.97;;
55469;SDS011;41334;47.872;16.384;2023-05-07T20:16:49;7.85;;;5.30;;
55469;SDS011;41334;47.872;16.384;2023-05-07T20:21:51;6.57;;;3.95;;
55469;SDS011;41334;47.872;16.384;2023-05-07T20:26:53;8.15;;;4.63;;
55469;SDS011;41334;47.872;16.384;2023-05-07T20:31:55;5.95;;;3.80;;
55469;SDS011;41334;47.872;16.384;2023-05-07T20:36:58;4.15;;;2.90;;
55469;SDS011;41334;47.872;16.384;2023-05-07T20:42:00;3.60;;;2.53;;
55469;SDS011;41334;47.872;16.384;2023-05-07T20:47:02;6.78;;;3.92;;
55469;SDS011;41334;47.872;16.384;2023-05-07T20:52:04;8.27;;;5.45;;
55469;SDS011;41334;47.872;16.384;2023-05-07T20:57:06;3.40;;;2.20;;
55469;SDS011;41334;47.872;16.384;2023-05-07T21:02:08;4.57;;;2.88;;
55469;SDS011;41334;47.872;16.384;2023-05-07T21:07:09;3.88;;;1.88;;
55469;SDS011;41334;47.872;16.384;2023-05-07T21:12:12;5.03;;;3.58;;
55469;SDS011;41334;47.872;16.384;2023-05-07T21:17:14;2.30;;;1.50;;
55469;SDS011;41334;47.872;16.384;2023-05-07T21:22:16;6.45;;;2.28;;
55469;SDS011;41334;47.872;16.384;2023-05-07T21:27:17;1.13;;;0.95;;
55469;SDS011;41334;47.872;16.384;2023-05-07T21:32:19;4.30;;;2.20;;
55469;SDS011;41334;47.872;16.384;2023-05-07T21:37:21;1.85;;;1.13;;
55469;SDS011;41334;47.872;16.384;2023-05-07T21:42:24;6.60;;;3.38;;
55469;SDS011;41334;47.872;16.384;2023-05-07T21:47:26;9.68;;;6.18;;
55469;SDS011;41334;47.872;16.384;2023-05-07T21:52:28;7.25;;;4.88;;
55469;SDS011;41334;47.872;16.384;2023-05-07T21:57:29;13.05;;;5.07;;
55469;SDS011;41334;47.872;16.384;2023-05-07T22:02:31;8.32;;;4.80;;
55469;SDS011;41334;47.872;16.384;2023-05-07T22:07:34;6.90;;;4.07;;
55469;SDS011;41334;47.872;16.384;2023-05-07T22:12:36;5.05;;;2.22;;
55469;SDS011;41334;47.872;16.384;2023-05-07T22:17:37;6.82;;;4.22;;
55469;SDS011;41334;47.872;16.384;2023-05-07T22:22:46;11.50;;;7.18;;
55469;SDS011;41334;47.872;16.384;2023-05-07T22:27:57;8.90;;;4.60;;
55469;SDS011;41334;47.872;16.384;2023-05-07T22:32:59;8.27;;;4.50;;
55469;SDS011;41334;47.872;16.384;2023-05-07T22:38:01;5.47;;;3.42;;
55469;SDS011;41334;47.872;16.384;2023-05-07T22:43:03;11.77;;;6.38;;
55469;SDS011;41334;47.872;16.384;2023-05-07T22:48:04;1.73;;;1.13;;
55469;SDS011;41334;47.872;16.384;2023-05-07T22:53:07;9.57;;;4.55;;
55469;SDS011;41334;47.872;16.384;2023-05-07T22:58:08;13.95;;;6.35;;
55469;SDS011;41334;47.872;16.384;2023-05-07T23:03:10;8.98;;;5.53;;
55469;SDS011;41334;47.872;16.384;2023-05-07T23:08:12;5.50;;;2.78;;
55469;SDS011;41334;47.872;16.384;2023-05-07T23:13:14;9.93;;;5.00;;
55469;SDS011;41334;47.872;16.384;2023-05-07T23:18:18;1.55;;;0.45;;
55469;SDS011;41334;47.872;16.384;2023-05-07T23:23:22;7.18;;;4.47;;
55469;SDS011;41334;47.872;16.384;2023-05-07T23:28:24;8.50;;;4.53;;
55469;SDS011;41334;47.872;16.384;2023-05-07T23:33:25;8.52;;;3.75;;
55469;SDS011;41334;47.872;16.384;2023-05-07T23:38:27;12.43;;;6.03;;
55469;SDS011;41334;47.872;16.384;2023-05-07T23:43:29;8.65;;;6.10;;
55469;SDS011;41334;47.872;16.384;2023-05-07T23:48:31;1.15;;;0.85;;
55469;SDS011;41334;47.872;16.384;2023-05-07T23:53:33;2.20;;;1.52;;
55469;SDS011;41334;47.872;16.384;2023-05-07T23:58:34;9.43;;;5.97;;
